KSPG/SPG METAR and TAF weather

Enter ICAO airport designator
Station Type Date Time Source
KSPG METAR 2021/08/01 16:53 UTC NOAA

KSPG 011653Z 23006G18KT 10SM SCT030 31/24 A3005 RMK AO2 SLP174 T03060244


Station Type Date Time Source
KSPG Decoded METAR 2021/08/01 16:53 UTC NOAA

ST PETERSBURG WHITTED AIRPORT , FL, United States (KSPG) 27-46N 082-38W 2M
Aug 01, 2021 - 12:53 PM EDT / 2021.08.01 1653 UTC
Wind: from the SW (230 degrees) at 7 MPH (6 KT) gusting to 21 MPH (18 KT):0
Visibility: 10 mile(s):0
Sky conditions: partly cloudy
Temperature: 87.1 F (30.6 C)
Heat index: 97.3 F (36.3 C):1
Dew Point: 75.9 F (24.4 C)
Relative Humidity: 69%
Pressure (altimeter): 30.05 in. Hg (1017 hPa)
ob: KSPG 011653Z 23006G18KT 10SM SCT030 31/24 A3005 RMK AO2 SLP174 T03060244
cycle: 17

Station Type Date Time Source
KSPG TAF UTC NOAA

Error!

Example: see airport list